createdAt,value
2022-07-31T00:01:16.149Z,1.83
2022-07-31T00:04:56.255Z,1.85
2022-07-31T00:08:24.200Z,1.95
2022-07-31T00:12:05.271Z,2.12
2022-07-31T00:15:30.914Z,1.90
2022-07-31T00:19:09.910Z,2.03
2022-07-31T00:26:12.797Z,2.00
2022-07-31T00:29:41.453Z,2.10
2022-07-31T00:33:19.172Z,2.40
2022-07-31T00:36:47.326Z,2.00
2022-07-31T00:40:24.819Z,2.33
2022-07-31T00:43:50.234Z,2.53
2022-07-31T00:47:30.089Z,2.50
2022-07-31T00:50:55.863Z,2.40
2022-07-31T00:54:33.883Z,2.33
2022-07-31T00:57:59.238Z,2.30
2022-07-31T01:01:39.253Z,2.42
2022-07-31T01:05:08.985Z,2.50
2022-07-31T01:08:46.018Z,2.20
2022-07-31T01:12:21.109Z,2.58
2022-07-31T01:16:04.887Z,2.37
2022-07-31T01:19:42.623Z,2.62
2022-07-31T01:23:55.152Z,2.33
2022-07-31T01:27:49.673Z,2.00
2022-07-31T01:32:04.219Z,2.47
2022-07-31T01:35:48.331Z,2.17
2022-07-31T01:39:34.031Z,2.08
2022-07-31T01:43:18.004Z,2.08
2022-07-31T01:46:58.595Z,1.77
2022-07-31T01:50:43.148Z,1.70
2022-07-31T01:54:03.446Z,1.60
2022-07-31T01:57:46.843Z,1.75
2022-07-31T02:01:28.730Z,1.60
2022-07-31T02:05:11.598Z,1.58
2022-07-31T02:08:51.041Z,1.40
2022-07-31T02:12:33.941Z,1.30
2022-07-31T02:16:12.046Z,1.30
2022-07-31T02:19:41.484Z,1.60
2022-07-31T02:23:19.180Z,1.40
2022-07-31T02:27:00.882Z,1.30
2022-07-31T02:30:46.471Z,1.17
2022-07-31T02:34:39.561Z,1.25
2022-07-31T02:38:24.458Z,1.20
2022-07-31T02:42:06.010Z,1.08
2022-07-31T02:45:34.465Z,1.20
2022-07-31T02:49:14.101Z,1.12
2022-07-31T02:52:39.583Z,1.25
2022-07-31T02:56:18.567Z,1.05
2022-07-31T02:59:46.898Z,1.15
2022-07-31T03:03:24.753Z,1.20
2022-07-31T03:06:50.573Z,1.27
2022-07-31T03:10:31.598Z,1.35
2022-07-31T03:14:10.780Z,1.30
2022-07-31T03:17:51.652Z,1.27
2022-07-31T03:21:32.020Z,1.37
2022-07-31T03:25:10.887Z,1.30
2022-07-31T03:28:50.386Z,1.37
2022-07-31T03:32:28.160Z,1.30
2022-07-31T03:36:05.296Z,1.65
2022-07-31T03:39:45.346Z,1.45
2022-07-31T03:43:15.788Z,1.40
2022-07-31T03:46:54.514Z,1.40
2022-07-31T03:50:35.038Z,1.50
2022-07-31T03:54:13.643Z,1.50
2022-07-31T03:57:52.386Z,1.73
2022-07-31T04:01:57.239Z,1.70
2022-07-31T04:05:12.187Z,1.70
2022-07-31T04:08:50.499Z,1.70
2022-07-31T04:12:27.846Z,1.70
2022-07-31T04:16:05.128Z,1.92
2022-07-31T04:19:45.116Z,1.75
2022-07-31T04:26:49.517Z,1.73
2022-07-31T04:30:28.065Z,2.00
2022-07-31T04:34:05.082Z,1.80
2022-07-31T04:37:48.110Z,2.00
2022-07-31T04:41:19.067Z,1.73
2022-07-31T04:44:56.397Z,1.83
2022-07-31T04:48:33.989Z,1.55
2022-07-31T04:52:12.940Z,1.52
2022-07-31T04:56:08.388Z,1.35
2022-07-31T04:59:59.316Z,1.30
2022-07-31T05:03:19.055Z,1.60
2022-07-31T05:06:50.197Z,1.35
2022-07-31T05:10:47.739Z,1.40
2022-07-31T05:14:27.258Z,1.65
2022-07-31T05:18:07.706Z,1.30
2022-07-31T05:21:53.347Z,1.35
2022-07-31T05:25:27.484Z,1.30
2022-07-31T05:29:06.065Z,1.55
2022-07-31T05:32:43.291Z,1.48
2022-07-31T05:36:10.731Z,1.40
2022-07-31T05:39:50.158Z,1.40
2022-07-31T05:43:25.449Z,1.70
2022-07-31T05:47:02.917Z,1.50
2022-07-31T05:50:28.265Z,1.52
2022-07-31T05:54:08.115Z,1.62
2022-07-31T06:01:33.751Z,1.67
2022-07-31T06:05:13.512Z,1.67
2022-07-31T06:08:39.183Z,1.55
2022-07-31T06:12:16.279Z,1.60
2022-07-31T06:15:56.079Z,1.75
2022-07-31T06:19:37.667Z,1.55
2022-07-31T06:23:03.045Z,1.60
2022-07-31T06:26:40.023Z,1.30
2022-07-31T06:30:08.490Z,1.30
2022-07-31T06:33:50.017Z,1.90
2022-07-31T06:37:27.286Z,1.70
2022-07-31T06:41:05.003Z,1.48
2022-07-31T06:44:47.023Z,1.80
2022-07-31T06:48:24.786Z,2.00
2022-07-31T06:52:05.343Z,1.73
2022-07-31T06:55:44.187Z,1.70
2022-07-31T06:59:09.290Z,1.87
2022-07-31T07:02:50.231Z,1.75
2022-07-31T07:06:16.508Z,1.45
2022-07-31T07:09:54.071Z,1.95
2022-07-31T07:13:45.368Z,1.60
2022-07-31T07:17:13.959Z,1.40
2022-07-31T07:20:40.191Z,1.40
2022-07-31T07:24:17.306Z,1.30
2022-07-31T07:27:56.870Z,1.30
2022-07-31T07:31:37.361Z,1.42
2022-07-31T07:35:14.166Z,1.10
2022-07-31T07:38:55.285Z,1.25
2022-07-31T07:42:32.828Z,0.90
2022-07-31T07:46:14.115Z,1.20
2022-07-31T07:49:51.017Z,1.12
2022-07-31T07:53:29.250Z,1.17
2022-07-31T07:57:06.982Z,1.40
2022-07-31T08:00:46.426Z,1.30
2022-07-31T08:04:26.413Z,1.25
2022-07-31T08:07:52.302Z,1.30
2022-07-31T08:11:30.113Z,1.30
2022-07-31T08:15:08.175Z,1.25
2022-07-31T08:18:38.528Z,0.90
2022-07-31T08:22:05.197Z,1.10
2022-07-31T08:25:43.372Z,1.00
2022-07-31T08:29:27.471Z,1.02
2022-07-31T08:33:03.137Z,1.00
2022-07-31T08:36:41.528Z,0.80
2022-07-31T08:40:19.958Z,0.93
2022-07-31T08:43:59.824Z,0.77
2022-07-31T08:47:41.814Z,0.80
2022-07-31T08:51:17.462Z,0.90
2022-07-31T08:55:00.981Z,1.00
2022-07-31T09:02:13.144Z,0.77
2022-07-31T09:05:50.084Z,0.60
2022-07-31T09:09:22.550Z,0.70
2022-07-31T09:12:49.561Z,0.60
2022-07-31T09:16:44.282Z,0.62
2022-07-31T09:20:30.502Z,0.68
2022-07-31T09:24:10.303Z,0.85
2022-07-31T09:27:48.708Z,0.50
2022-07-31T09:31:35.355Z,0.60
2022-07-31T09:35:15.628Z,0.62
2022-07-31T09:38:56.495Z,0.65
2022-07-31T09:42:45.621Z,0.62
2022-07-31T09:46:19.945Z,0.82
2022-07-31T09:50:04.353Z,0.70
2022-07-31T09:53:53.177Z,0.80
2022-07-31T09:57:30.208Z,0.70
2022-07-31T10:01:13.462Z,0.77
2022-07-31T10:04:57.120Z,0.70
2022-07-31T10:08:43.607Z,0.80
2022-07-31T10:12:29.635Z,0.90
2022-07-31T10:16:07.484Z,0.80
2022-07-31T10:19:50.050Z,0.73
2022-07-31T10:23:25.510Z,0.57
2022-07-31T10:27:09.405Z,0.60
2022-07-31T10:30:47.892Z,0.77
2022-07-31T10:34:27.281Z,0.82
2022-07-31T10:38:22.850Z,0.80
2022-07-31T10:42:14.741Z,0.88
2022-07-31T10:45:54.004Z,0.70
2022-07-31T10:49:42.160Z,0.90
2022-07-31T10:53:21.599Z,1.00
2022-07-31T10:57:04.161Z,0.82
2022-07-31T11:00:41.126Z,1.10
2022-07-31T11:04:32.624Z,0.93
2022-07-31T11:08:10.178Z,1.15
2022-07-31T11:11:52.276Z,1.00
2022-07-31T11:15:32.422Z,0.88
2022-07-31T11:19:11.161Z,0.90
2022-07-31T11:22:52.151Z,1.00
2022-07-31T11:26:32.881Z,1.00
2022-07-31T11:30:05.695Z,1.02
2022-07-31T11:33:47.186Z,1.08
2022-07-31T11:37:23.538Z,0.85
2022-07-31T11:41:05.468Z,1.00
2022-07-31T11:44:31.369Z,0.90
2022-07-31T11:48:20.783Z,1.00
2022-07-31T11:51:52.897Z,0.85
2022-07-31T11:55:28.418Z,1.02
2022-07-31T11:58:58.075Z,1.10
2022-07-31T12:02:40.100Z,0.75
2022-07-31T12:06:20.930Z,0.80
2022-07-31T12:10:01.510Z,0.90
2022-07-31T12:13:30.560Z,1.05
2022-07-31T12:16:56.378Z,0.85
2022-07-31T12:20:36.603Z,1.00
2022-07-31T12:24:11.540Z,0.70
2022-07-31T12:27:56.166Z,0.87
2022-07-31T12:31:21.304Z,1.12
2022-07-31T12:35:05.380Z,1.02
2022-07-31T12:38:41.025Z,0.80
2022-07-31T12:42:10.213Z,0.75
2022-07-31T12:45:39.980Z,0.90
2022-07-31T12:49:18.133Z,0.88
2022-07-31T12:52:43.897Z,0.90
2022-07-31T12:56:23.600Z,0.90
2022-07-31T12:59:49.447Z,0.93
2022-07-31T13:03:45.397Z,0.90
2022-07-31T13:06:57.737Z,0.80
2022-07-31T13:10:36.207Z,0.90
2022-07-31T13:14:01.362Z,0.70
2022-07-31T13:17:43.548Z,0.68
2022-07-31T13:21:07.519Z,0.70
2022-07-31T13:24:36.350Z,0.80
2022-07-31T13:28:01.446Z,0.77
2022-07-31T13:31:26.399Z,0.90
2022-07-31T13:35:24.237Z,0.93
2022-07-31T13:38:36.913Z,0.80
2022-07-31T13:42:15.309Z,0.60
2022-07-31T13:45:43.016Z,0.95
2022-07-31T13:49:22.917Z,0.90
2022-07-31T13:52:48.217Z,0.90
2022-07-31T13:56:38.781Z,0.77
2022-07-31T13:59:57.037Z,0.68
2022-07-31T14:03:36.608Z,0.90
2022-07-31T14:07:06.971Z,0.80
2022-07-31T14:10:48.423Z,0.80
2022-07-31T14:14:13.102Z,1.00
2022-07-31T14:17:49.983Z,1.00
2022-07-31T14:21:16.498Z,1.20
2022-07-31T14:24:55.507Z,0.70
2022-07-31T14:28:21.406Z,0.90
2022-07-31T14:31:59.169Z,0.68
2022-07-31T14:35:27.338Z,0.65
2022-07-31T14:39:04.381Z,0.82
2022-07-31T14:42:32.909Z,0.90
2022-07-31T14:46:10.516Z,0.70
2022-07-31T14:50:06.582Z,0.93
2022-07-31T14:53:17.328Z,0.82
2022-07-31T15:00:20.658Z,0.70
2022-07-31T15:03:46.483Z,0.63
2022-07-31T15:07:46.335Z,0.80
2022-07-31T15:10:50.362Z,0.82
2022-07-31T15:17:53.345Z,0.70
2022-07-31T15:21:32.645Z,0.67
2022-07-31T15:25:00.522Z,0.80
2022-07-31T15:28:38.252Z,0.93
2022-07-31T15:32:06.126Z,0.85
2022-07-31T15:35:43.940Z,1.10
2022-07-31T15:38:46.675Z,0.90
2022-07-31T15:41:49.784Z,0.90
2022-07-31T15:44:52.284Z,1.12
2022-07-31T15:47:55.152Z,0.88
2022-07-31T15:50:57.646Z,0.77
2022-07-31T15:54:00.947Z,0.80
2022-07-31T15:57:03.799Z,0.80
2022-07-31T16:00:12.513Z,0.95
2022-07-31T16:03:22.944Z,0.80
2022-07-31T16:06:48.906Z,1.20
2022-07-31T16:13:15.943Z,1.30
2022-07-31T16:16:18.801Z,0.98
2022-07-31T16:19:21.407Z,1.20
2022-07-31T16:22:27.055Z,0.80
2022-07-31T16:25:34.938Z,1.17
2022-07-31T16:28:41.039Z,0.93
2022-07-31T16:31:43.598Z,0.93
2022-07-31T16:34:51.650Z,1.20
2022-07-31T16:37:56.201Z,0.98
2022-07-31T16:40:59.341Z,1.00
2022-07-31T16:44:04.306Z,1.02
2022-07-31T16:47:08.781Z,1.00
2022-07-31T16:50:11.867Z,1.25
2022-07-31T16:54:11.338Z,1.30
2022-07-31T16:56:40.631Z,1.40
2022-07-31T16:59:57.681Z,1.12
2022-07-31T17:06:03.901Z,1.20
2022-07-31T17:09:17.479Z,1.10
2022-07-31T17:12:20.923Z,1.25
2022-07-31T17:15:23.783Z,1.30
2022-07-31T17:18:29.073Z,1.30
2022-07-31T17:21:31.627Z,1.30
2022-07-31T17:24:37.543Z,1.20
2022-07-31T17:27:42.986Z,1.30
2022-07-31T17:30:46.454Z,1.17
2022-07-31T17:33:59.715Z,1.20
2022-07-31T17:37:09.898Z,1.48
2022-07-31T17:40:40.880Z,1.17
2022-07-31T17:43:49.890Z,1.42
2022-07-31T17:46:57.927Z,1.40
2022-07-31T17:50:04.068Z,1.27
2022-07-31T17:53:06.791Z,1.25
2022-07-31T17:56:12.895Z,1.33
2022-07-31T17:59:16.254Z,1.30
2022-07-31T18:02:19.094Z,1.35
2022-07-31T18:05:22.233Z,1.70
2022-07-31T18:08:29.268Z,1.40
2022-07-31T18:11:34.695Z,1.40
2022-07-31T18:14:39.958Z,1.10
2022-07-31T18:17:47.207Z,1.20
2022-07-31T18:20:52.088Z,1.30
2022-07-31T18:23:55.072Z,1.12
2022-07-31T18:27:00.206Z,1.10
2022-07-31T18:30:06.031Z,1.48
2022-07-31T18:33:10.917Z,1.30
2022-07-31T18:36:14.325Z,1.40
2022-07-31T18:39:19.021Z,1.25
2022-07-31T18:42:24.133Z,1.17
2022-07-31T18:45:29.404Z,1.20
2022-07-31T18:48:32.221Z,1.30
2022-07-31T18:51:34.869Z,1.12
2022-07-31T18:54:38.751Z,1.37
2022-07-31T18:57:41.496Z,1.35
2022-07-31T19:00:44.318Z,1.20
2022-07-31T19:03:47.595Z,1.35
2022-07-31T19:06:54.552Z,1.40
2022-07-31T19:09:57.973Z,1.55
2022-07-31T19:13:04.975Z,1.25
2022-07-31T19:16:11.266Z,1.35
2022-07-31T19:19:22.559Z,1.73
2022-07-31T19:22:47.606Z,1.30
2022-07-31T19:26:02.662Z,1.35
2022-07-31T19:29:10.494Z,1.58
2022-07-31T19:32:14.037Z,1.33
2022-07-31T19:35:16.535Z,1.30
2022-07-31T19:38:21.652Z,1.30
2022-07-31T19:41:24.695Z,1.45
2022-07-31T19:44:28.471Z,1.40
2022-07-31T19:47:31.674Z,1.40
2022-07-31T19:50:37.083Z,1.40
2022-07-31T19:53:43.301Z,1.15
2022-07-31T19:59:51.481Z,1.35
2022-07-31T20:02:56.557Z,1.15
2022-07-31T20:06:00.019Z,1.50
2022-07-31T20:09:03.284Z,1.70
2022-07-31T20:12:09.096Z,1.48
2022-07-31T20:18:26.692Z,1.50
2022-07-31T20:21:35.380Z,1.60
2022-07-31T20:24:38.727Z,1.35
2022-07-31T20:27:41.673Z,1.35
2022-07-31T20:30:44.524Z,1.55
2022-07-31T20:33:57.151Z,1.50
2022-07-31T20:37:03.365Z,1.50
2022-07-31T20:40:12.493Z,1.58
2022-07-31T20:43:16.756Z,1.50
2022-07-31T20:46:19.379Z,1.80
2022-07-31T20:49:35.207Z,1.58
2022-07-31T20:52:39.529Z,1.20
2022-07-31T20:55:46.989Z,1.30
2022-07-31T20:58:51.922Z,1.20
2022-07-31T21:01:57.157Z,1.20
2022-07-31T21:05:05.792Z,1.40
2022-07-31T21:08:14.019Z,1.40
2022-07-31T21:11:20.522Z,1.10
2022-07-31T21:14:25.779Z,1.08
2022-07-31T21:17:28.410Z,1.05
2022-07-31T21:20:50.617Z,1.20
2022-07-31T21:24:01.065Z,1.20
2022-07-31T21:27:05.711Z,1.17
2022-07-31T21:30:11.742Z,0.95
2022-07-31T21:36:20.842Z,1.05
2022-07-31T21:39:25.801Z,1.00
2022-07-31T21:42:35.724Z,1.08
2022-07-31T21:45:55.047Z,0.80
2022-07-31T21:49:09.142Z,0.80
2022-07-31T21:52:12.725Z,0.80
2022-07-31T21:55:19.054Z,1.00
2022-07-31T21:58:22.773Z,0.95
2022-07-31T22:01:28.138Z,0.82
2022-07-31T22:04:34.463Z,0.93
2022-07-31T22:10:49.406Z,1.10
2022-07-31T22:13:56.999Z,1.10
2022-07-31T22:17:03.122Z,0.98
2022-07-31T22:20:09.999Z,0.82
2022-07-31T22:23:16.985Z,1.12
2022-07-31T22:26:22.452Z,0.80
2022-07-31T22:29:27.188Z,1.00
2022-07-31T22:32:30.034Z,0.98
2022-07-31T22:35:34.583Z,0.80
2022-07-31T22:38:38.552Z,0.90
2022-07-31T22:41:41.693Z,0.90
2022-07-31T22:44:50.899Z,0.90
2022-07-31T22:47:59.108Z,1.00
2022-07-31T22:51:04.122Z,1.00
2022-07-31T22:54:07.072Z,1.20
2022-07-31T22:57:12.115Z,1.08
2022-07-31T23:00:18.267Z,0.90
2022-07-31T23:03:22.108Z,0.90
2022-07-31T23:06:30.597Z,1.00
2022-07-31T23:09:35.040Z,0.82
2022-07-31T23:12:38.002Z,1.00
2022-07-31T23:15:43.785Z,0.93
2022-07-31T23:18:46.606Z,0.82
2022-07-31T23:21:49.035Z,0.80
2022-07-31T23:24:52.042Z,0.80
2022-07-31T23:27:57.235Z,1.10
2022-07-31T23:34:05.902Z,1.00
2022-07-31T23:37:09.657Z,1.00
2022-07-31T23:40:13.250Z,1.00
2022-07-31T23:43:20.871Z,0.95
2022-07-31T23:46:26.563Z,0.80
2022-07-31T23:49:32.058Z,1.08
2022-07-31T23:52:36.865Z,1.10
2022-07-31T23:55:42.586Z,1.10
2022-07-31T23:58:47.233Z,1.10
